sensor_id;sensor_type;location;lat;lon;timestamp;P1;durP1;ratioP1;P2;durP2;ratioP2
20040;SDS011;10181;48.072;9.884;2024-02-28T00:00:25;16.13;;;10.00;;
20040;SDS011;10181;48.072;9.884;2024-02-28T00:02:50;13.73;;;9.60;;
20040;SDS011;10181;48.072;9.884;2024-02-28T00:05:16;17.03;;;10.63;;
20040;SDS011;10181;48.072;9.884;2024-02-28T00:07:42;18.23;;;11.53;;
20040;SDS011;10181;48.072;9.884;2024-02-28T00:10:07;15.10;;;10.73;;
20040;SDS011;10181;48.072;9.884;2024-02-28T00:12:33;19.70;;;12.33;;
20040;SDS011;10181;48.072;9.884;2024-02-28T00:14:59;18.50;;;10.87;;
20040;SDS011;10181;48.072;9.884;2024-02-28T00:17:25;15.27;;;10.57;;
20040;SDS011;10181;48.072;9.884;2024-02-28T00:19:51;16.07;;;9.50;;
20040;SDS011;10181;48.072;9.884;2024-02-28T00:22:17;17.33;;;11.47;;
20040;SDS011;10181;48.072;9.884;2024-02-28T00:24:42;19.37;;;10.30;;
20040;SDS011;10181;48.072;9.884;2024-02-28T00:27:08;22.00;;;12.23;;
20040;SDS011;10181;48.072;9.884;2024-02-28T00:29:33;18.60;;;12.13;;
20040;SDS011;10181;48.072;9.884;2024-02-28T00:31:59;17.90;;;12.30;;
20040;SDS011;10181;48.072;9.884;2024-02-28T00:34:25;17.20;;;11.93;;
20040;SDS011;10181;48.072;9.884;2024-02-28T00:36:51;19.03;;;11.50;;
20040;SDS011;10181;48.072;9.884;2024-02-28T00:39:16;14.63;;;10.33;;
20040;SDS011;10181;48.072;9.884;2024-02-28T00:41:42;16.73;;;11.90;;
20040;SDS011;10181;48.072;9.884;2024-02-28T00:44:08;19.00;;;12.13;;
20040;SDS011;10181;48.072;9.884;2024-02-28T00:46:34;17.60;;;11.47;;
20040;SDS011;10181;48.072;9.884;2024-02-28T00:48:59;19.50;;;10.77;;
20040;SDS011;10181;48.072;9.884;2024-02-28T00:51:25;13.77;;;9.47;;
20040;SDS011;10181;48.072;9.884;2024-02-28T00:53:50;17.03;;;10.87;;
20040;SDS011;10181;48.072;9.884;2024-02-28T00:56:16;18.33;;;10.53;;
20040;SDS011;10181;48.072;9.884;2024-02-28T00:58:43;18.17;;;11.77;;
20040;SDS011;10181;48.072;9.884;2024-02-28T01:01:09;17.93;;;11.57;;
20040;SDS011;10181;48.072;9.884;2024-02-28T01:03:35;18.90;;;10.90;;
20040;SDS011;10181;48.072;9.884;2024-02-28T01:06:00;16.80;;;10.10;;
20040;SDS011;10181;48.072;9.884;2024-02-28T01:08:28;17.37;;;10.57;;
20040;SDS011;10181;48.072;9.884;2024-02-28T01:10:53;18.60;;;11.20;;
20040;SDS011;10181;48.072;9.884;2024-02-28T01:13:19;15.60;;;9.80;;
20040;SDS011;10181;48.072;9.884;2024-02-28T01:15:45;15.73;;;9.73;;
20040;SDS011;10181;48.072;9.884;2024-02-28T01:18:10;13.73;;;10.00;;
20040;SDS011;10181;48.072;9.884;2024-02-28T01:20:36;15.67;;;10.43;;
20040;SDS011;10181;48.072;9.884;2024-02-28T01:23:02;16.13;;;10.90;;
20040;SDS011;10181;48.072;9.884;2024-02-28T01:25:27;19.13;;;11.37;;
20040;SDS011;10181;48.072;9.884;2024-02-28T01:27:53;16.87;;;10.50;;
20040;SDS011;10181;48.072;9.884;2024-02-28T01:30:20;17.53;;;11.67;;
20040;SDS011;10181;48.072;9.884;2024-02-28T01:32:46;18.07;;;10.43;;
20040;SDS011;10181;48.072;9.884;2024-02-28T01:35:11;14.40;;;10.03;;
20040;SDS011;10181;48.072;9.884;2024-02-28T01:37:38;17.27;;;11.00;;
20040;SDS011;10181;48.072;9.884;2024-02-28T01:40:04;15.57;;;9.87;;
20040;SDS011;10181;48.072;9.884;2024-02-28T01:42:30;18.27;;;11.93;;
20040;SDS011;10181;48.072;9.884;2024-02-28T01:44:55;16.20;;;10.17;;
20040;SDS011;10181;48.072;9.884;2024-02-28T01:47:21;16.23;;;9.90;;
20040;SDS011;10181;48.072;9.884;2024-02-28T01:49:47;18.40;;;10.87;;
20040;SDS011;10181;48.072;9.884;2024-02-28T01:52:13;19.60;;;11.23;;
20040;SDS011;10181;48.072;9.884;2024-02-28T01:54:39;15.07;;;10.53;;
20040;SDS011;10181;48.072;9.884;2024-02-28T01:57:06;13.90;;;9.23;;
20040;SDS011;10181;48.072;9.884;2024-02-28T01:59:32;15.47;;;10.77;;
20040;SDS011;10181;48.072;9.884;2024-02-28T02:01:59;17.93;;;9.93;;
20040;SDS011;10181;48.072;9.884;2024-02-28T02:04:25;17.37;;;10.73;;
20040;SDS011;10181;48.072;9.884;2024-02-28T02:06:50;20.40;;;11.80;;
20040;SDS011;10181;48.072;9.884;2024-02-28T02:09:19;19.93;;;11.93;;
20040;SDS011;10181;48.072;9.884;2024-02-28T02:11:45;17.57;;;10.87;;
20040;SDS011;10181;48.072;9.884;2024-02-28T02:14:10;19.43;;;11.53;;
20040;SDS011;10181;48.072;9.884;2024-02-28T02:16:36;17.33;;;11.17;;
20040;SDS011;10181;48.072;9.884;2024-02-28T02:19:02;24.07;;;13.87;;
20040;SDS011;10181;48.072;9.884;2024-02-28T02:21:34;17.53;;;11.83;;
20040;SDS011;10181;48.072;9.884;2024-02-28T02:24:02;15.17;;;9.83;;
20040;SDS011;10181;48.072;9.884;2024-02-28T02:26:28;17.93;;;12.30;;
20040;SDS011;10181;48.072;9.884;2024-02-28T02:28:53;17.00;;;11.27;;
20040;SDS011;10181;48.072;9.884;2024-02-28T02:31:19;20.37;;;11.80;;
20040;SDS011;10181;48.072;9.884;2024-02-28T02:33:44;18.13;;;11.83;;
20040;SDS011;10181;48.072;9.884;2024-02-28T02:36:10;14.83;;;11.03;;
20040;SDS011;10181;48.072;9.884;2024-02-28T02:38:36;19.67;;;11.77;;
20040;SDS011;10181;48.072;9.884;2024-02-28T02:41:01;20.70;;;11.53;;
20040;SDS011;10181;48.072;9.884;2024-02-28T02:43:27;19.40;;;12.00;;
20040;SDS011;10181;48.072;9.884;2024-02-28T02:45:52;17.77;;;11.47;;
20040;SDS011;10181;48.072;9.884;2024-02-28T02:48:18;20.00;;;12.37;;
20040;SDS011;10181;48.072;9.884;2024-02-28T02:50:43;17.90;;;11.10;;
20040;SDS011;10181;48.072;9.884;2024-02-28T02:53:10;19.43;;;11.73;;
20040;SDS011;10181;48.072;9.884;2024-02-28T02:55:36;18.73;;;12.47;;
20040;SDS011;10181;48.072;9.884;2024-02-28T02:58:01;20.43;;;12.10;;
20040;SDS011;10181;48.072;9.884;2024-02-28T03:00:27;20.07;;;12.30;;
20040;SDS011;10181;48.072;9.884;2024-02-28T03:02:53;21.73;;;11.80;;
20040;SDS011;10181;48.072;9.884;2024-02-28T03:05:19;23.03;;;12.73;;
20040;SDS011;10181;48.072;9.884;2024-02-28T03:07:45;19.20;;;11.90;;
20040;SDS011;10181;48.072;9.884;2024-02-28T03:10:11;18.17;;;10.60;;
20040;SDS011;10181;48.072;9.884;2024-02-28T03:12:36;24.43;;;13.07;;
20040;SDS011;10181;48.072;9.884;2024-02-28T03:15:02;19.70;;;12.00;;
20040;SDS011;10181;48.072;9.884;2024-02-28T03:17:28;16.07;;;10.60;;
20040;SDS011;10181;48.072;9.884;2024-02-28T03:19:54;18.73;;;12.40;;
20040;SDS011;10181;48.072;9.884;2024-02-28T03:22:20;19.80;;;11.23;;
20040;SDS011;10181;48.072;9.884;2024-02-28T03:24:45;20.33;;;12.60;;
20040;SDS011;10181;48.072;9.884;2024-02-28T03:27:11;20.13;;;12.37;;
20040;SDS011;10181;48.072;9.884;2024-02-28T03:29:37;18.40;;;10.90;;
20040;SDS011;10181;48.072;9.884;2024-02-28T03:32:02;25.40;;;14.50;;
20040;SDS011;10181;48.072;9.884;2024-02-28T03:34:28;24.37;;;13.90;;
20040;SDS011;10181;48.072;9.884;2024-02-28T03:36:54;21.50;;;12.20;;
20040;SDS011;10181;48.072;9.884;2024-02-28T03:39:20;21.33;;;12.27;;
20040;SDS011;10181;48.072;9.884;2024-02-28T03:41:46;18.33;;;10.80;;
20040;SDS011;10181;48.072;9.884;2024-02-28T03:44:11;22.87;;;12.27;;
20040;SDS011;10181;48.072;9.884;2024-02-28T03:46:37;17.57;;;11.07;;
20040;SDS011;10181;48.072;9.884;2024-02-28T03:49:03;25.97;;;13.00;;
20040;SDS011;10181;48.072;9.884;2024-02-28T03:51:28;21.50;;;12.53;;
20040;SDS011;10181;48.072;9.884;2024-02-28T03:53:54;22.93;;;13.13;;
20040;SDS011;10181;48.072;9.884;2024-02-28T03:56:26;24.07;;;12.67;;
20040;SDS011;10181;48.072;9.884;2024-02-28T03:58:53;26.23;;;14.03;;
20040;SDS011;10181;48.072;9.884;2024-02-28T04:01:19;24.30;;;13.23;;
20040;SDS011;10181;48.072;9.884;2024-02-28T04:03:44;22.27;;;13.10;;
20040;SDS011;10181;48.072;9.884;2024-02-28T04:06:11;24.67;;;14.70;;
20040;SDS011;10181;48.072;9.884;2024-02-28T04:08:36;18.17;;;11.30;;
20040;SDS011;10181;48.072;9.884;2024-02-28T04:11:02;22.47;;;12.87;;
20040;SDS011;10181;48.072;9.884;2024-02-28T04:13:28;21.57;;;12.03;;
20040;SDS011;10181;48.072;9.884;2024-02-28T04:15:54;25.17;;;13.07;;
20040;SDS011;10181;48.072;9.884;2024-02-28T04:18:20;20.13;;;11.83;;
20040;SDS011;10181;48.072;9.884;2024-02-28T04:20:46;17.07;;;10.67;;
20040;SDS011;10181;48.072;9.884;2024-02-28T04:23:11;17.70;;;12.20;;
20040;SDS011;10181;48.072;9.884;2024-02-28T04:25:37;21.23;;;12.23;;
20040;SDS011;10181;48.072;9.884;2024-02-28T04:28:05;22.97;;;12.23;;
20040;SDS011;10181;48.072;9.884;2024-02-28T04:30:33;23.37;;;13.57;;
20040;SDS011;10181;48.072;9.884;2024-02-28T04:32:59;25.70;;;13.50;;
20040;SDS011;10181;48.072;9.884;2024-02-28T04:35:25;20.10;;;12.00;;
20040;SDS011;10181;48.072;9.884;2024-02-28T04:37:50;20.03;;;11.60;;
20040;SDS011;10181;48.072;9.884;2024-02-28T04:40:16;19.03;;;11.53;;
20040;SDS011;10181;48.072;9.884;2024-02-28T04:42:42;24.43;;;12.50;;
20040;SDS011;10181;48.072;9.884;2024-02-28T04:45:10;24.10;;;13.03;;
20040;SDS011;10181;48.072;9.884;2024-02-28T04:47:36;18.47;;;11.27;;
20040;SDS011;10181;48.072;9.884;2024-02-28T04:50:02;27.80;;;13.00;;
20040;SDS011;10181;48.072;9.884;2024-02-28T04:52:32;23.53;;;12.40;;
20040;SDS011;10181;48.072;9.884;2024-02-28T04:54:58;20.93;;;12.43;;
20040;SDS011;10181;48.072;9.884;2024-02-28T04:57:24;22.50;;;12.73;;
20040;SDS011;10181;48.072;9.884;2024-02-28T04:59:49;20.20;;;12.10;;
20040;SDS011;10181;48.072;9.884;2024-02-28T05:02:15;16.37;;;10.43;;
20040;SDS011;10181;48.072;9.884;2024-02-28T05:04:41;18.57;;;12.50;;
20040;SDS011;10181;48.072;9.884;2024-02-28T05:07:07;21.43;;;11.53;;
20040;SDS011;10181;48.072;9.884;2024-02-28T05:09:33;22.80;;;12.43;;
20040;SDS011;10181;48.072;9.884;2024-02-28T05:12:00;24.20;;;14.03;;
20040;SDS011;10181;48.072;9.884;2024-02-28T05:14:26;21.80;;;13.53;;
20040;SDS011;10181;48.072;9.884;2024-02-28T05:16:51;22.17;;;12.77;;
20040;SDS011;10181;48.072;9.884;2024-02-28T05:19:17;23.20;;;12.13;;
20040;SDS011;10181;48.072;9.884;2024-02-28T05:21:43;21.90;;;12.53;;
20040;SDS011;10181;48.072;9.884;2024-02-28T05:24:09;20.07;;;11.90;;
20040;SDS011;10181;48.072;9.884;2024-02-28T05:26:35;22.50;;;12.77;;
20040;SDS011;10181;48.072;9.884;2024-02-28T05:29:02;23.53;;;13.50;;
20040;SDS011;10181;48.072;9.884;2024-02-28T05:31:28;26.27;;;13.87;;
20040;SDS011;10181;48.072;9.884;2024-02-28T05:33:56;18.97;;;12.03;;
20040;SDS011;10181;48.072;9.884;2024-02-28T05:36:23;21.40;;;12.60;;
20040;SDS011;10181;48.072;9.884;2024-02-28T05:38:50;25.20;;;13.80;;
20040;SDS011;10181;48.072;9.884;2024-02-28T05:41:16;21.40;;;11.77;;
20040;SDS011;10181;48.072;9.884;2024-02-28T05:43:42;22.10;;;12.17;;
20040;SDS011;10181;48.072;9.884;2024-02-28T05:46:08;25.43;;;14.27;;
20040;SDS011;10181;48.072;9.884;2024-02-28T05:48:34;23.83;;;12.60;;
20040;SDS011;10181;48.072;9.884;2024-02-28T05:51:00;24.30;;;14.30;;
20040;SDS011;10181;48.072;9.884;2024-02-28T05:53:26;26.47;;;14.13;;
20040;SDS011;10181;48.072;9.884;2024-02-28T05:55:53;26.93;;;14.43;;
20040;SDS011;10181;48.072;9.884;2024-02-28T05:58:21;26.70;;;12.83;;
20040;SDS011;10181;48.072;9.884;2024-02-28T06:00:47;24.73;;;13.20;;
20040;SDS011;10181;48.072;9.884;2024-02-28T06:03:13;27.00;;;13.50;;
20040;SDS011;10181;48.072;9.884;2024-02-28T06:05:38;24.07;;;12.80;;
20040;SDS011;10181;48.072;9.884;2024-02-28T06:08:04;26.70;;;13.87;;
20040;SDS011;10181;48.072;9.884;2024-02-28T06:10:30;23.13;;;14.60;;
20040;SDS011;10181;48.072;9.884;2024-02-28T06:12:56;24.63;;;13.30;;
20040;SDS011;10181;48.072;9.884;2024-02-28T06:15:21;24.90;;;14.00;;
20040;SDS011;10181;48.072;9.884;2024-02-28T06:17:47;23.87;;;12.93;;
20040;SDS011;10181;48.072;9.884;2024-02-28T06:20:12;23.70;;;12.33;;
20040;SDS011;10181;48.072;9.884;2024-02-28T06:22:38;23.23;;;12.40;;
20040;SDS011;10181;48.072;9.884;2024-02-28T06:25:03;23.83;;;12.80;;
20040;SDS011;10181;48.072;9.884;2024-02-28T06:27:32;24.00;;;12.80;;
20040;SDS011;10181;48.072;9.884;2024-02-28T06:29:58;30.57;;;15.57;;
20040;SDS011;10181;48.072;9.884;2024-02-28T06:32:24;21.83;;;12.27;;
20040;SDS011;10181;48.072;9.884;2024-02-28T06:34:50;22.30;;;12.40;;
20040;SDS011;10181;48.072;9.884;2024-02-28T06:37:15;24.97;;;14.50;;
20040;SDS011;10181;48.072;9.884;2024-02-28T06:39:41;26.57;;;13.60;;
20040;SDS011;10181;48.072;9.884;2024-02-28T06:42:07;23.20;;;12.80;;
20040;SDS011;10181;48.072;9.884;2024-02-28T06:44:33;26.67;;;12.80;;
20040;SDS011;10181;48.072;9.884;2024-02-28T06:46:58;26.53;;;13.60;;
20040;SDS011;10181;48.072;9.884;2024-02-28T06:49:24;29.57;;;14.33;;
20040;SDS011;10181;48.072;9.884;2024-02-28T06:51:50;24.33;;;13.37;;
20040;SDS011;10181;48.072;9.884;2024-02-28T06:54:15;21.10;;;13.33;;
20040;SDS011;10181;48.072;9.884;2024-02-28T06:56:41;22.57;;;12.40;;
20040;SDS011;10181;48.072;9.884;2024-02-28T06:59:06;27.23;;;14.10;;
20040;SDS011;10181;48.072;9.884;2024-02-28T07:01:32;26.47;;;13.47;;
20040;SDS011;10181;48.072;9.884;2024-02-28T07:03:58;27.73;;;13.57;;
20040;SDS011;10181;48.072;9.884;2024-02-28T07:06:24;24.37;;;13.87;;
20040;SDS011;10181;48.072;9.884;2024-02-28T07:08:49;26.73;;;13.83;;
20040;SDS011;10181;48.072;9.884;2024-02-28T07:11:15;25.77;;;14.53;;
20040;SDS011;10181;48.072;9.884;2024-02-28T07:13:41;32.57;;;15.67;;
20040;SDS011;10181;48.072;9.884;2024-02-28T07:16:07;26.30;;;13.70;;
20040;SDS011;10181;48.072;9.884;2024-02-28T07:18:33;27.27;;;14.73;;
20040;SDS011;10181;48.072;9.884;2024-02-28T07:20:58;28.93;;;15.27;;
20040;SDS011;10181;48.072;9.884;2024-02-28T07:23:24;30.10;;;14.70;;
20040;SDS011;10181;48.072;9.884;2024-02-28T07:25:50;23.47;;;12.83;;
20040;SDS011;10181;48.072;9.884;2024-02-28T07:28:15;23.20;;;13.13;;
20040;SDS011;10181;48.072;9.884;2024-02-28T07:30:41;32.33;;;15.37;;
20040;SDS011;10181;48.072;9.884;2024-02-28T07:33:09;27.90;;;15.53;;
20040;SDS011;10181;48.072;9.884;2024-02-28T07:35:44;28.87;;;13.50;;
20040;SDS011;10181;48.072;9.884;2024-02-28T07:38:10;36.20;;;16.27;;
20040;SDS011;10181;48.072;9.884;2024-02-28T07:40:36;28.37;;;14.10;;
20040;SDS011;10181;48.072;9.884;2024-02-28T07:43:02;30.10;;;14.80;;
20040;SDS011;10181;48.072;9.884;2024-02-28T07:45:27;33.07;;;14.53;;
20040;SDS011;10181;48.072;9.884;2024-02-28T07:47:53;30.10;;;14.43;;
20040;SDS011;10181;48.072;9.884;2024-02-28T07:50:18;30.23;;;15.53;;
20040;SDS011;10181;48.072;9.884;2024-02-28T07:52:44;25.23;;;13.77;;
20040;SDS011;10181;48.072;9.884;2024-02-28T07:55:10;33.40;;;15.40;;
20040;SDS011;10181;48.072;9.884;2024-02-28T07:57:35;29.10;;;15.13;;
20040;SDS011;10181;48.072;9.884;2024-02-28T08:00:01;31.17;;;15.43;;
20040;SDS011;10181;48.072;9.884;2024-02-28T08:02:27;25.07;;;13.50;;
20040;SDS011;10181;48.072;9.884;2024-02-28T08:04:53;31.47;;;14.73;;
20040;SDS011;10181;48.072;9.884;2024-02-28T08:07:18;31.17;;;15.43;;
20040;SDS011;10181;48.072;9.884;2024-02-28T08:09:44;31.63;;;15.57;;
20040;SDS011;10181;48.072;9.884;2024-02-28T08:12:09;31.77;;;15.63;;
20040;SDS011;10181;48.072;9.884;2024-02-28T08:14:35;32.53;;;15.10;;
20040;SDS011;10181;48.072;9.884;2024-02-28T08:17:01;29.67;;;15.87;;
20040;SDS011;10181;48.072;9.884;2024-02-28T08:19:26;31.27;;;16.67;;
20040;SDS011;10181;48.072;9.884;2024-02-28T08:21:52;27.27;;;14.47;;
20040;SDS011;10181;48.072;9.884;2024-02-28T08:24:17;32.50;;;15.43;;
20040;SDS011;10181;48.072;9.884;2024-02-28T08:26:43;30.47;;;14.47;;
20040;SDS011;10181;48.072;9.884;2024-02-28T08:29:09;33.57;;;14.47;;
20040;SDS011;10181;48.072;9.884;2024-02-28T08:31:39;26.00;;;14.63;;
20040;SDS011;10181;48.072;9.884;2024-02-28T08:34:06;27.67;;;14.83;;
20040;SDS011;10181;48.072;9.884;2024-02-28T08:36:31;28.13;;;14.73;;
20040;SDS011;10181;48.072;9.884;2024-02-28T08:38:57;28.43;;;14.60;;
20040;SDS011;10181;48.072;9.884;2024-02-28T08:41:22;24.43;;;13.13;;
20040;SDS011;10181;48.072;9.884;2024-02-28T08:43:48;24.23;;;12.90;;
20040;SDS011;10181;48.072;9.884;2024-02-28T08:46:14;21.67;;;11.90;;
20040;SDS011;10181;48.072;9.884;2024-02-28T08:48:41;30.10;;;15.40;;
20040;SDS011;10181;48.072;9.884;2024-02-28T08:51:07;26.57;;;13.40;;
20040;SDS011;10181;48.072;9.884;2024-02-28T08:53:32;24.87;;;13.20;;
20040;SDS011;10181;48.072;9.884;2024-02-28T08:55:58;23.47;;;11.77;;
20040;SDS011;10181;48.072;9.884;2024-02-28T08:58:23;20.63;;;12.20;;
20040;SDS011;10181;48.072;9.884;2024-02-28T09:00:50;29.13;;;14.37;;
20040;SDS011;10181;48.072;9.884;2024-02-28T09:03:16;25.70;;;14.70;;
20040;SDS011;10181;48.072;9.884;2024-02-28T09:05:41;20.87;;;11.87;;
20040;SDS011;10181;48.072;9.884;2024-02-28T09:08:07;24.20;;;13.80;;
20040;SDS011;10181;48.072;9.884;2024-02-28T09:10:33;31.47;;;15.90;;
20040;SDS011;10181;48.072;9.884;2024-02-28T09:12:59;25.77;;;13.60;;
20040;SDS011;10181;48.072;9.884;2024-02-28T09:15:25;25.20;;;12.87;;
20040;SDS011;10181;48.072;9.884;2024-02-28T09:17:50;21.30;;;11.93;;
20040;SDS011;10181;48.072;9.884;2024-02-28T09:20:17;25.23;;;13.63;;
20040;SDS011;10181;48.072;9.884;2024-02-28T09:22:42;22.90;;;12.77;;
20040;SDS011;10181;48.072;9.884;2024-02-28T09:25:08;25.33;;;13.30;;
20040;SDS011;10181;48.072;9.884;2024-02-28T09:27:34;25.13;;;13.33;;
20040;SDS011;10181;48.072;9.884;2024-02-28T09:30:01;22.20;;;12.37;;
20040;SDS011;10181;48.072;9.884;2024-02-28T09:32:27;21.50;;;12.97;;
20040;SDS011;10181;48.072;9.884;2024-02-28T09:34:53;27.80;;;13.63;;
20040;SDS011;10181;48.072;9.884;2024-02-28T09:37:18;21.37;;;12.13;;
20040;SDS011;10181;48.072;9.884;2024-02-28T09:39:46;24.67;;;11.73;;
20040;SDS011;10181;48.072;9.884;2024-02-28T09:42:11;27.93;;;13.40;;
20040;SDS011;10181;48.072;9.884;2024-02-28T09:44:39;20.33;;;10.93;;
20040;SDS011;10181;48.072;9.884;2024-02-28T09:47:05;23.37;;;12.33;;
20040;SDS011;10181;48.072;9.884;2024-02-28T09:49:31;22.43;;;10.87;;
20040;SDS011;10181;48.072;9.884;2024-02-28T09:51:58;19.77;;;11.90;;
20040;SDS011;10181;48.072;9.884;2024-02-28T09:54:24;21.53;;;12.33;;
20040;SDS011;10181;48.072;9.884;2024-02-28T09:56:51;20.03;;;11.47;;
20040;SDS011;10181;48.072;9.884;2024-02-28T09:59:19;16.57;;;10.30;;
20040;SDS011;10181;48.072;9.884;2024-02-28T10:01:51;22.07;;;12.23;;
20040;SDS011;10181;48.072;9.884;2024-02-28T10:04:22;18.27;;;9.63;;
20040;SDS011;10181;48.072;9.884;2024-02-28T10:06:50;23.43;;;11.60;;
20040;SDS011;10181;48.072;9.884;2024-02-28T10:09:16;15.33;;;9.90;;
20040;SDS011;10181;48.072;9.884;2024-02-28T10:11:41;23.37;;;12.80;;
20040;SDS011;10181;48.072;9.884;2024-02-28T10:14:11;19.47;;;11.17;;
20040;SDS011;10181;48.072;9.884;2024-02-28T10:16:37;29.60;;;14.03;;
20040;SDS011;10181;48.072;9.884;2024-02-28T10:19:04;23.40;;;12.43;;
20040;SDS011;10181;48.072;9.884;2024-02-28T10:21:30;18.37;;;11.53;;
20040;SDS011;10181;48.072;9.884;2024-02-28T10:23:57;22.20;;;11.63;;
20040;SDS011;10181;48.072;9.884;2024-02-28T10:26:23;21.77;;;12.03;;
20040;SDS011;10181;48.072;9.884;2024-02-28T10:28:51;21.80;;;12.27;;
20040;SDS011;10181;48.072;9.884;2024-02-28T10:31:17;20.93;;;11.67;;
20040;SDS011;10181;48.072;9.884;2024-02-28T10:33:46;18.23;;;11.97;;
20040;SDS011;10181;48.072;9.884;2024-02-28T10:36:12;24.50;;;12.90;;
20040;SDS011;10181;48.072;9.884;2024-02-28T10:38:38;18.73;;;11.83;;
20040;SDS011;10181;48.072;9.884;2024-02-28T10:41:03;20.43;;;12.53;;
20040;SDS011;10181;48.072;9.884;2024-02-28T10:43:29;22.60;;;12.97;;
20040;SDS011;10181;48.072;9.884;2024-02-28T10:45:58;21.30;;;11.63;;
20040;SDS011;10181;48.072;9.884;2024-02-28T10:48:25;18.23;;;11.30;;
20040;SDS011;10181;48.072;9.884;2024-02-28T10:50:51;19.07;;;11.17;;
20040;SDS011;10181;48.072;9.884;2024-02-28T10:53:20;21.33;;;11.90;;
20040;SDS011;10181;48.072;9.884;2024-02-28T10:55:49;21.60;;;12.17;;
20040;SDS011;10181;48.072;9.884;2024-02-28T10:58:16;18.50;;;11.57;;
20040;SDS011;10181;48.072;9.884;2024-02-28T11:00:47;17.87;;;11.03;;
20040;SDS011;10181;48.072;9.884;2024-02-28T11:03:15;21.53;;;12.30;;
20040;SDS011;10181;48.072;9.884;2024-02-28T11:05:42;20.17;;;11.63;;
20040;SDS011;10181;48.072;9.884;2024-02-28T11:08:21;17.80;;;10.87;;
20040;SDS011;10181;48.072;9.884;2024-02-28T11:10:55;17.63;;;11.03;;
20040;SDS011;10181;48.072;9.884;2024-02-28T11:13:21;19.60;;;11.50;;
20040;SDS011;10181;48.072;9.884;2024-02-28T11:15:48;18.93;;;11.60;;
20040;SDS011;10181;48.072;9.884;2024-02-28T11:18:14;18.60;;;11.03;;
20040;SDS011;10181;48.072;9.884;2024-02-28T11:20:41;18.87;;;10.40;;
20040;SDS011;10181;48.072;9.884;2024-02-28T11:23:07;17.17;;;12.03;;
20040;SDS011;10181;48.072;9.884;2024-02-28T11:25:34;27.70;;;14.10;;
20040;SDS011;10181;48.072;9.884;2024-02-28T11:28:00;21.30;;;11.10;;
20040;SDS011;10181;48.072;9.884;2024-02-28T11:30:26;27.33;;;14.27;;
20040;SDS011;10181;48.072;9.884;2024-02-28T11:32:52;24.13;;;13.23;;
20040;SDS011;10181;48.072;9.884;2024-02-28T11:35:18;22.27;;;12.67;;
20040;SDS011;10181;48.072;9.884;2024-02-28T11:37:47;28.23;;;14.20;;
20040;SDS011;10181;48.072;9.884;2024-02-28T11:40:14;21.83;;;13.37;;
20040;SDS011;10181;48.072;9.884;2024-02-28T11:42:39;22.23;;;13.23;;
20040;SDS011;10181;48.072;9.884;2024-02-28T11:45:05;20.00;;;12.53;;
20040;SDS011;10181;48.072;9.884;2024-02-28T11:47:35;24.23;;;13.17;;
20040;SDS011;10181;48.072;9.884;2024-02-28T11:50:01;20.93;;;12.43;;
20040;SDS011;10181;48.072;9.884;2024-02-28T11:52:30;26.43;;;15.27;;
20040;SDS011;10181;48.072;9.884;2024-02-28T11:54:56;26.13;;;13.13;;
20040;SDS011;10181;48.072;9.884;2024-02-28T11:57:22;23.37;;;14.17;;
20040;SDS011;10181;48.072;9.884;2024-02-28T11:59:48;21.30;;;12.13;;
20040;SDS011;10181;48.072;9.884;2024-02-28T12:02:14;24.63;;;13.77;;
20040;SDS011;10181;48.072;9.884;2024-02-28T12:04:41;17.33;;;11.03;;
20040;SDS011;10181;48.072;9.884;2024-02-28T12:07:07;23.93;;;13.03;;
20040;SDS011;10181;48.072;9.884;2024-02-28T12:09:33;23.70;;;13.13;;
20040;SDS011;10181;48.072;9.884;2024-02-28T12:12:02;46.97;;;15.47;;
20040;SDS011;10181;48.072;9.884;2024-02-28T12:14:32;31.93;;;14.50;;
20040;SDS011;10181;48.072;9.884;2024-02-28T12:17:01;26.33;;;13.13;;
20040;SDS011;10181;48.072;9.884;2024-02-28T12:19:28;26.30;;;12.20;;
20040;SDS011;10181;48.072;9.884;2024-02-28T12:21:53;21.63;;;12.43;;
20040;SDS011;10181;48.072;9.884;2024-02-28T12:24:19;21.20;;;12.40;;
20040;SDS011;10181;48.072;9.884;2024-02-28T12:26:45;21.77;;;11.53;;
20040;SDS011;10181;48.072;9.884;2024-02-28T12:29:11;21.33;;;12.20;;
20040;SDS011;10181;48.072;9.884;2024-02-28T12:31:37;21.67;;;11.63;;
20040;SDS011;10181;48.072;9.884;2024-02-28T12:34:03;19.93;;;11.50;;
20040;SDS011;10181;48.072;9.884;2024-02-28T12:36:29;22.43;;;12.53;;
20040;SDS011;10181;48.072;9.884;2024-02-28T12:38:56;20.60;;;11.73;;
20040;SDS011;10181;48.072;9.884;2024-02-28T12:41:22;20.20;;;11.87;;
20040;SDS011;10181;48.072;9.884;2024-02-28T12:43:48;21.30;;;12.57;;
20040;SDS011;10181;48.072;9.884;2024-02-28T12:46:15;19.10;;;11.23;;
20040;SDS011;10181;48.072;9.884;2024-02-28T12:48:40;19.83;;;11.03;;
20040;SDS011;10181;48.072;9.884;2024-02-28T12:51:06;18.57;;;10.67;;
20040;SDS011;10181;48.072;9.884;2024-02-28T12:53:34;14.27;;;10.30;;
20040;SDS011;10181;48.072;9.884;2024-02-28T12:56:00;20.20;;;11.30;;
20040;SDS011;10181;48.072;9.884;2024-02-28T12:58:26;18.50;;;11.00;;
20040;SDS011;10181;48.072;9.884;2024-02-28T13:00:51;19.27;;;11.20;;
20040;SDS011;10181;48.072;9.884;2024-02-28T13:03:17;20.30;;;11.40;;
20040;SDS011;10181;48.072;9.884;2024-02-28T13:05:43;17.77;;;11.80;;
20040;SDS011;10181;48.072;9.884;2024-02-28T13:08:09;17.27;;;10.23;;
20040;SDS011;10181;48.072;9.884;2024-02-28T13:10:35;19.13;;;11.03;;
20040;SDS011;10181;48.072;9.884;2024-02-28T13:13:04;15.97;;;11.20;;
20040;SDS011;10181;48.072;9.884;2024-02-28T13:15:31;16.27;;;11.13;;
20040;SDS011;10181;48.072;9.884;2024-02-28T13:17:56;14.57;;;10.17;;
20040;SDS011;10181;48.072;9.884;2024-02-28T13:20:22;16.47;;;10.70;;
20040;SDS011;10181;48.072;9.884;2024-02-28T13:22:48;15.40;;;9.97;;
20040;SDS011;10181;48.072;9.884;2024-02-28T13:25:13;14.33;;;9.87;;
20040;SDS011;10181;48.072;9.884;2024-02-28T13:27:40;16.33;;;10.10;;
20040;SDS011;10181;48.072;9.884;2024-02-28T13:30:06;16.77;;;10.70;;
20040;SDS011;10181;48.072;9.884;2024-02-28T13:32:32;17.53;;;11.07;;
20040;SDS011;10181;48.072;9.884;2024-02-28T13:34:58;17.20;;;10.40;;
20040;SDS011;10181;48.072;9.884;2024-02-28T13:37:24;18.73;;;10.53;;
20040;SDS011;10181;48.072;9.884;2024-02-28T13:39:50;15.70;;;10.20;;
20040;SDS011;10181;48.072;9.884;2024-02-28T13:42:17;17.33;;;10.73;;
20040;SDS011;10181;48.072;9.884;2024-02-28T13:44:45;15.07;;;9.77;;
20040;SDS011;10181;48.072;9.884;2024-02-28T13:47:11;13.97;;;10.40;;
20040;SDS011;10181;48.072;9.884;2024-02-28T13:49:40;14.30;;;10.10;;
20040;SDS011;10181;48.072;9.884;2024-02-28T13:52:06;17.90;;;10.60;;
20040;SDS011;10181;48.072;9.884;2024-02-28T13:54:31;17.83;;;11.10;;
20040;SDS011;10181;48.072;9.884;2024-02-28T13:56:57;14.57;;;9.67;;
20040;SDS011;10181;48.072;9.884;2024-02-28T13:59:23;15.67;;;10.30;;
20040;SDS011;10181;48.072;9.884;2024-02-28T14:01:49;16.70;;;10.33;;
20040;SDS011;10181;48.072;9.884;2024-02-28T14:04:15;17.37;;;10.87;;
20040;SDS011;10181;48.072;9.884;2024-02-28T14:06:41;13.67;;;8.73;;
20040;SDS011;10181;48.072;9.884;2024-02-28T14:09:06;16.50;;;9.87;;
20040;SDS011;10181;48.072;9.884;2024-02-28T14:11:32;14.90;;;10.30;;
20040;SDS011;10181;48.072;9.884;2024-02-28T14:13:59;14.33;;;9.60;;
20040;SDS011;10181;48.072;9.884;2024-02-28T14:16:24;15.37;;;9.90;;